Time;durP1;ratioP1;P1;durP2;ratioP2;P2;SDS_P1;SDS_P2;PMS_P1;PMS_P2;Temp;Humidity;BMP_temperature;BMP_pressure;BME280_temperature;BME280_humidity;BME280_pressure;Samples;Min_cycle;Max_cycle;Signal;HPM_P1;HPM_P2
2021/01/26 00:00:26;;;;;;;6.78;3.55;;;;;;;-0.22;84.43;99503.47;5063393;28;20032;-65
2021/01/26 00:02:51;;;;;;;4.15;2.92;;;;;;;-0.22;84.70;99511.13;5063566;28;20046;-65
2021/01/26 00:05:17;;;;;;;6.20;2.80;;;;;;;-0.19;84.62;99506.09;5063337;28;20338;-64
2021/01/26 00:07:43;;;;;;;4.90;3.20;;;;;;;-0.31;84.37;99506.69;5063066;28;20106;-65
2021/01/26 00:10:10;;;;;;;4.05;3.05;;;;;;;-0.32;84.21;99510.91;5063428;28;20021;-65
2021/01/26 00:12:36;;;;;;;7.60;3.65;;;;;;;-0.29;84.55;99515.25;5063238;28;20029;-65
2021/01/26 00:15:03;;;;;;;3.45;2.55;;;;;;;-0.35;84.52;99515.94;5063283;28;20491;-64
2021/01/26 00:17:28;;;;;;;5.72;3.05;;;;;;;-0.41;83.77;99505.63;5063194;28;20028;-65
2021/01/26 00:19:53;;;;;;;3.65;2.70;;;;;;;-0.54;83.57;99499.38;5063011;28;20021;-65
2021/01/26 00:22:19;;;;;;;4.82;2.75;;;;;;;-0.54;83.35;99510.44;5062915;28;20021;-65
2021/01/26 00:24:44;;;;;;;4.15;3.13;;;;;;;-0.54;84.06;99507.03;5063232;28;20029;-66
2021/01/26 00:27:10;;;;;;;5.50;3.08;;;;;;;-0.51;84.28;99509.66;5063065;28;20029;-65
2021/01/26 00:29:35;;;;;;;6.32;3.13;;;;;;;-0.53;84.46;99503.69;5063062;28;20024;-65
2021/01/26 00:32:00;;;;;;;5.18;2.90;;;;;;;-0.52;84.46;99513.91;5062875;28;20074;-64
2021/01/26 00:34:26;;;;;;;3.65;2.60;;;;;;;-0.57;84.43;99510.38;5063000;28;20047;-64
2021/01/26 00:36:51;;;;;;;4.28;2.75;;;;;;;-0.53;84.51;99512.16;5062670;28;20041;-67
2021/01/26 00:39:17;;;;;;;3.35;2.67;;;;;;;-0.55;84.41;99518.06;5062925;28;20115;-65
2021/01/26 00:41:42;;;;;;;3.80;2.90;;;;;;;-0.58;84.36;99516.31;5064759;28;20041;-64
2021/01/26 00:44:08;;;;;;;3.20;2.50;;;;;;;-0.59;84.42;99527.31;5066940;28;20021;-65
2021/01/26 00:46:33;;;;;;;6.35;3.03;;;;;;;-0.64;84.21;99531.47;5067120;28;20033;-66
2021/01/26 00:48:58;;;;;;;3.83;2.53;;;;;;;-0.68;84.60;99529.66;5066883;28;20029;-64
2021/01/26 00:51:24;;;;;;;4.55;2.85;;;;;;;-0.79;84.40;99521.78;5066538;28;20025;-64
2021/01/26 00:53:49;;;;;;;6.22;3.10;;;;;;;-0.79;84.53;99525.19;5048894;28;20088;-64
2021/01/26 00:56:15;;;;;;;6.43;3.15;;;;;;;-0.83;84.25;99533.56;5066666;28;20024;-65
2021/01/26 00:58:40;;;;;;;4.00;3.05;;;;;;;-0.89;83.75;99533.44;5048694;28;20057;-65
2021/01/26 01:01:06;;;;;;;4.85;3.03;;;;;;;-1.00;83.56;99538.28;5066339;28;20062;-65
2021/01/26 01:03:31;;;;;;;3.83;3.03;;;;;;;-1.00;83.98;99539.16;5066481;28;20036;-65
2021/01/26 01:05:57;;;;;;;4.93;3.13;;;;;;;-0.98;84.30;99538.31;5066408;28;20021;-64
2021/01/26 01:08:23;;;;;;;6.03;3.85;;;;;;;-1.01;84.41;99537.41;5066295;28;20021;-65
2021/01/26 01:10:50;;;;;;;8.60;3.63;;;;;;;-1.01;84.32;99541.66;5066339;28;20477;-64
2021/01/26 01:13:16;;;;;;;6.07;3.53;;;;;;;-0.96;84.63;99544.31;5048521;28;20059;-65
2021/01/26 01:15:41;;;;;;;7.53;4.18;;;;;;;-0.96;84.80;99542.63;5066200;28;20349;-65
2021/01/26 01:18:07;;;;;;;6.35;3.90;;;;;;;-0.94;84.74;99535.03;5048404;28;20052;-65
2021/01/26 01:20:32;;;;;;;6.57;3.50;;;;;;;-0.92;84.67;99543.56;5066038;28;20021;-63
2021/01/26 01:22:58;;;;;;;4.93;3.30;;;;;;;-0.95;84.38;99540.94;5066119;28;20035;-64
2021/01/26 01:25:24;;;;;;;3.45;2.55;;;;;;;-0.97;84.24;99543.44;5066336;28;20032;-63
2021/01/26 01:27:50;;;;;;;3.63;2.63;;;;;;;-1.01;84.48;99547.59;5065911;28;20025;-64
2021/01/26 01:30:23;;;;;;;4.28;2.50;;;;;;;-1.03;84.55;99550.94;5065847;28;20024;-63
2021/01/26 01:32:49;;;;;;;5.13;3.00;;;;;;;-1.09;84.19;99544.00;5066019;28;20130;-64
2021/01/26 01:35:15;;;;;;;4.32;2.60;;;;;;;-1.15;84.34;99551.50;5065643;28;20144;-65
2021/01/26 01:37:40;;;;;;;5.13;2.40;;;;;;;-1.13;84.39;99549.84;5065820;28;20480;-65
2021/01/26 01:40:08;;;;;;;3.95;2.10;;;;;;;-1.12;84.42;99551.59;5065355;28;20017;-65
2021/01/26 01:42:34;;;;;;;3.35;2.22;;;;;;;-1.17;84.31;99550.59;5047010;28;20024;-65
2021/01/26 01:44:59;;;;;;;5.47;2.67;;;;;;;-1.20;84.31;99553.94;5047885;28;20543;-63
2021/01/26 01:47:33;;;;;;;6.07;2.70;;;;;;;-1.19;84.49;99555.66;5047809;28;20057;-64
2021/01/26 01:50:01;;;;;;;5.93;2.20;;;;;;;-1.28;83.65;99556.25;5065540;28;20040;-64
2021/01/26 01:52:32;;;;;;;2.72;2.25;;;;;;;-1.29;83.81;99557.09;5064154;28;20033;-65
2021/01/26 01:55:17;;;;;;;3.38;2.38;;;;;;;-1.32;84.32;99548.50;5065522;28;20063;-65
2021/01/26 01:57:54;;;;;;;4.60;2.40;;;;;;;-1.26;84.36;99557.16;5065577;28;20029;-65
2021/01/26 02:00:21;;;;;;;2.63;2.00;;;;;;;-1.29;83.86;99564.72;5065528;28;20025;-65
2021/01/26 02:02:54;;;;;;;5.05;2.10;;;;;;;-1.28;84.09;99560.50;5065252;28;20032;-65
2021/01/26 02:05:20;;;;;;;4.53;2.40;;;;;;;-1.28;84.28;99563.06;5065300;28;20044;-65
2021/01/26 02:07:46;;;;;;;3.40;2.08;;;;;;;-1.33;84.08;99560.38;5065122;28;20032;-65
2021/01/26 02:10:12;;;;;;;3.33;2.38;;;;;;;-1.35;83.80;99573.88;5065287;28;20021;-65
2021/01/26 02:12:38;;;;;;;4.97;2.42;;;;;;;-1.30;84.29;99573.19;5065289;28;20020;-65
2021/01/26 02:15:06;;;;;;;3.28;2.30;;;;;;;-1.31;84.06;99571.47;5065202;28;20035;-62
2021/01/26 02:18:14;;;;;;;4.82;3.08;;;;;;;-1.33;83.88;99578.22;5065074;28;20053;-65
2021/01/26 02:21:11;;;;;;;4.35;2.53;;;;;;;-1.31;84.00;99574.00;5064747;28;20032;-64
2021/01/26 02:24:03;;;;;;;8.18;2.55;;;;;;;-1.27;84.22;99575.84;5053904;28;20488;-65
2021/01/26 02:26:47;;;;;;;3.15;2.47;;;;;;;-1.29;83.33;99579.13;5055615;28;20047;-65
2021/01/26 02:29:24;;;;;;;5.05;2.35;;;;;;;-1.23;83.80;99581.00;5064977;28;20021;-65
2021/01/26 02:32:10;;;;;;;4.82;2.92;;;;;;;-1.19;84.29;99586.22;5064869;28;20025;-64
2021/01/26 02:34:48;;;;;;;2.75;2.30;;;;;;;-1.13;84.44;99578.72;5046802;28;20025;-64
2021/01/26 02:37:41;;;;;;;4.60;2.78;;;;;;;-1.13;84.39;99578.72;5064559;28;20063;-64
2021/01/26 02:40:17;;;;;;;2.30;1.30;;;;;;;-1.11;84.13;99578.78;5064699;28;20029;-65
2021/01/26 02:43:17;;;;;;;4.95;2.58;;;;;;;-1.23;84.19;99581.84;5064966;28;20023;-65
2021/01/26 02:45:54;;;;;;;5.15;2.28;;;;;;;-1.32;84.26;99579.94;5064529;28;20031;-64
2021/01/26 02:48:46;;;;;;;4.68;2.13;;;;;;;-1.39;83.86;99578.06;5064716;28;20055;-65
2021/01/26 02:51:25;;;;;;;8.40;2.50;;;;;;;-1.40;83.75;99583.94;5060280;28;20036;-65
2021/01/26 02:54:00;;;;;;;4.22;2.80;;;;;;;-1.38;84.36;99585.75;5064496;28;20056;-65
2021/01/26 02:56:25;;;;;;;4.00;2.20;;;;;;;-1.40;84.17;99595.00;5064534;28;20211;-65
2021/01/26 02:59:22;;;;;;;3.95;2.33;;;;;;;-1.50;83.31;99593.00;5064503;28;20046;-66
2021/01/26 03:01:56;;;;;;;6.05;1.98;;;;;;;-1.47;83.49;99603.28;5064234;28;20021;-65
2021/01/26 03:04:33;;;;;;;3.50;2.30;;;;;;;-1.46;83.76;99607.56;5046264;28;20183;-65
2021/01/26 03:07:03;;;;;;;2.88;2.40;;;;;;;-1.42;83.68;99603.44;5064067;28;20436;-65
2021/01/26 03:09:36;;;;;;;5.63;2.60;;;;;;;-1.48;83.16;99603.25;5064424;28;20109;-65
2021/01/26 03:12:16;;;;;;;6.70;2.85;;;;;;;-1.46;83.30;99602.47;5045984;28;20372;-65
2021/01/26 03:14:48;;;;;;;3.70;2.45;;;;;;;-1.41;83.91;99611.13;5064237;28;20017;-65
2021/01/26 03:17:28;;;;;;;3.53;1.88;;;;;;;-1.42;83.71;99608.53;5064252;28;20024;-65
2021/01/26 03:19:56;;;;;;;4.25;2.40;;;;;;;-1.42;83.75;99617.00;5063841;28;20055;-65
2021/01/26 03:22:25;;;;;;;6.18;2.33;;;;;;;-1.42;84.06;99623.81;5063670;28;20025;-64
2021/01/26 03:24:54;;;;;;;4.22;2.10;;;;;;;-1.47;83.63;99627.91;5064074;28;20354;-65
2021/01/26 03:27:23;;;;;;;3.15;2.60;;;;;;;-1.54;83.88;99625.19;5063845;28;20465;-63
2021/01/26 03:29:53;;;;;;;6.60;2.78;;;;;;;-1.54;84.20;99630.28;5064139;28;20043;-65
2021/01/26 03:32:22;;;;;;;4.13;2.72;;;;;;;-1.57;83.98;99630.19;5063687;28;20028;-65
2021/01/26 03:34:48;;;;;;;3.17;2.65;;;;;;;-1.60;83.94;99636.88;5063589;28;20030;-64
2021/01/26 03:37:14;;;;;;;3.92;2.00;;;;;;;-1.59;84.14;99638.59;5063424;28;20029;-65
2021/01/26 03:39:40;;;;;;;4.88;2.13;;;;;;;-1.60;84.19;99636.88;5063692;28;20025;-65
2021/01/26 03:42:05;;;;;;;2.90;2.10;;;;;;;-1.60;84.39;99626.69;5063643;28;20051;-65
2021/01/26 03:44:31;;;;;;;3.15;2.50;;;;;;;-1.56;84.45;99637.00;5063662;28;20075;-65
2021/01/26 03:47:07;;;;;;;2.60;2.17;;;;;;;-1.52;84.59;99638.81;5063607;28;20037;-65
2021/01/26 03:50:10;;;;;;;4.57;2.47;;;;;;;-1.45;84.67;99644.09;5063745;28;20100;-65
2021/01/26 03:52:59;;;;;;;1.95;1.73;;;;;;;-1.56;83.63;99648.84;5063234;28;20029;-65
2021/01/26 03:55:42;;;;;;;2.85;2.03;;;;;;;-1.69;83.52;99642.56;5063562;28;20017;-65
2021/01/26 03:58:42;;;;;;;3.03;1.85;;;;;;;-1.75;84.20;99654.28;5045514;28;20021;-65
2021/01/26 04:01:25;;;;;;;2.35;1.83;;;;;;;-1.70;84.67;99651.00;5063038;28;20120;-65
2021/01/26 04:03:56;;;;;;;2.22;1.80;;;;;;;-1.70;83.90;99663.72;5063604;28;20033;-65
2021/01/26 04:06:37;;;;;;;2.90;1.60;;;;;;;-1.75;83.67;99661.94;5063607;28;20024;-65
2021/01/26 04:09:07;;;;;;;3.10;1.92;;;;;;;-1.85;83.50;99659.91;5063332;28;20443;-64
2021/01/26 04:11:58;;;;;;;1.65;1.40;;;;;;;-2.03;83.00;99663.63;5063320;28;20070;-65
2021/01/26 04:14:37;;;;;;;2.13;1.63;;;;;;;-2.22;83.08;99674.88;5063510;28;20032;-65
2021/01/26 04:17:05;;;;;;;2.58;2.10;;;;;;;-2.33;83.22;99677.09;5065369;28;20029;-65
2021/01/26 04:19:38;;;;;;;2.53;2.22;;;;;;;-2.37;83.80;99681.25;5067430;28;20112;-64
2021/01/26 04:22:07;;;;;;;4.50;2.20;;;;;;;-2.38;83.94;99676.94;5067016;28;20040;-64
2021/01/26 04:24:35;;;;;;;4.05;2.10;;;;;;;-2.39;83.94;99672.69;5067425;28;20036;-64
2021/01/26 04:27:10;;;;;;;5.63;2.20;;;;;;;-2.43;84.10;99670.00;5067155;28;20119;-65
2021/01/26 04:29:35;;;;;;;2.65;1.90;;;;;;;-2.41;84.00;99676.00;5067270;28;20021;-66
2021/01/26 04:32:00;;;;;;;2.35;1.90;;;;;;;-2.40;83.65;99681.16;5049265;28;20128;-65
2021/01/26 04:34:26;;;;;;;3.78;2.20;;;;;;;-2.36;83.60;99677.00;5067094;28;20021;-65
2021/01/26 04:36:51;;;;;;;3.28;2.00;;;;;;;-2.31;84.13;99672.94;5066880;28;20126;-64
2021/01/26 04:39:17;;;;;;;3.50;2.50;;;;;;;-2.25;84.09;99675.66;5067053;28;20029;-66
2021/01/26 04:41:47;;;;;;;3.22;2.40;;;;;;;-2.22;84.17;99674.88;5067008;28;20306;-65
2021/01/26 04:44:43;;;;;;;3.10;2.22;;;;;;;-2.14;84.35;99673.47;5049216;28;20056;-65
2021/01/26 04:47:26;;;;;;;4.10;3.28;;;;;;;-2.16;83.67;99680.19;5066961;28;20020;-65
2021/01/26 04:50:00;;;;;;;3.63;2.53;;;;;;;-2.18;83.73;99669.09;5066781;28;20193;-64
2021/01/26 04:52:53;;;;;;;4.72;2.80;;;;;;;-2.26;83.81;99676.50;5066395;28;20025;-65
2021/01/26 04:55:28;;;;;;;4.25;2.53;;;;;;;-2.27;84.06;99682.38;5067025;28;20013;-65
2021/01/26 04:58:09;;;;;;;4.22;2.53;;;;;;;-2.34;83.93;99670.28;5066478;28;20052;-65
2021/01/26 05:00:53;;;;;;;3.72;2.95;;;;;;;-2.41;83.81;99670.91;5066417;28;20021;-64
2021/01/26 05:03:26;;;;;;;4.90;2.60;;;;;;;-2.45;83.97;99669.06;5066700;28;20016;-64
2021/01/26 05:05:56;;;;;;;4.32;2.80;;;;;;;-2.43;84.22;99677.63;5066644;28;20029;-63
2021/01/26 05:08:30;;;;;;;4.95;3.10;;;;;;;-2.39;84.35;99676.91;5066339;28;20029;-64
2021/01/26 05:11:20;;;;;;;4.47;3.15;;;;;;;-2.33;84.49;99681.34;5066468;28;20044;-64
2021/01/26 05:14:10;;;;;;;4.13;3.10;;;;;;;-2.27;84.42;99682.38;5066519;28;20025;-65
2021/01/26 05:16:58;;;;;;;3.42;2.42;;;;;;;-2.27;84.12;99673.91;5066211;28;20079;-64
2021/01/26 05:19:32;;;;;;;3.10;2.55;;;;;;;-2.32;83.82;99678.84;5066112;28;20028;-65
2021/01/26 05:22:10;;;;;;;4.07;3.10;;;;;;;-2.41;83.76;99686.19;5065912;28;20025;-64
2021/01/26 05:24:38;;;;;;;5.25;3.28;;;;;;;-2.37;84.02;99685.44;5065995;28;20028;-66
2021/01/26 05:27:04;;;;;;;5.63;3.80;;;;;;;-2.34;84.25;99690.63;5065722;28;20075;-66
2021/01/26 05:29:30;;;;;;;5.40;3.40;;;;;;;-2.28;84.36;99690.84;5066225;28;20021;-65
2021/01/26 05:31:59;;;;;;;3.30;2.95;;;;;;;-2.21;84.38;99693.56;5065970;28;20039;-65
2021/01/26 05:34:27;;;;;;;3.42;2.95;;;;;;;-2.21;84.32;99694.44;5066149;28;20029;-65
2021/01/26 05:36:53;;;;;;;4.28;2.65;;;;;;;-2.19;83.98;99699.56;5065870;28;20108;-64
2021/01/26 05:39:24;;;;;;;4.72;2.78;;;;;;;-2.20;83.79;99690.19;5065471;28;20032;-65
2021/01/26 05:41:53;;;;;;;2.10;1.77;;;;;;;-2.29;83.55;99683.16;5064880;28;20082;-66
2021/01/26 05:44:20;;;;;;;5.68;3.22;;;;;;;-2.39;83.43;99679.44;5065365;28;20025;-65
2021/01/26 05:46:47;;;;;;;4.57;3.22;;;;;;;-2.45;83.89;99692.84;5065848;28;20051;-65
2021/01/26 05:49:16;;;;;;;4.13;3.30;;;;;;;-2.48;83.88;99687.66;5066076;28;20027;-65
2021/01/26 05:51:43;;;;;;;4.85;3.03;;;;;;;-2.45;84.13;99691.97;5065396;28;20032;-63
2021/01/26 05:54:22;;;;;;;3.22;2.20;;;;;;;-2.51;83.95;99688.38;5065724;28;20059;-65
2021/01/26 05:56:51;;;;;;;3.70;2.20;;;;;;;-2.51;83.26;99698.56;5047213;28;20041;-66
2021/01/26 05:59:32;;;;;;;1.98;1.70;;;;;;;-2.64;83.47;99697.31;5047601;28;20147;-65
2021/01/26 06:02:12;;;;;;;5.22;2.67;;;;;;;-2.72;83.44;99698.72;5065642;28;20025;-65
2021/01/26 06:04:38;;;;;;;4.53;2.75;;;;;;;-2.74;83.69;99701.22;5065715;28;20088;-65
2021/01/26 06:07:05;;;;;;;4.38;2.80;;;;;;;-2.72;83.91;99708.00;5065068;28;20028;-64
2021/01/26 06:09:36;;;;;;;4.82;2.63;;;;;;;-2.69;84.07;99713.19;5065356;28;20017;-66
2021/01/26 06:12:06;;;;;;;5.47;2.95;;;;;;;-2.65;84.00;99707.44;5065406;28;20074;-65
2021/01/26 06:14:31;;;;;;;3.67;2.53;;;;;;;-2.68;83.80;99714.91;5065238;28;20104;-65
2021/01/26 06:17:23;;;;;;;3.75;2.53;;;;;;;-2.72;83.56;99711.44;5065111;28;20040;-65
2021/01/26 06:20:16;;;;;;;6.60;3.67;;;;;;;-2.79;83.44;99712.00;5060902;28;20052;-65
2021/01/26 06:22:41;;;;;;;5.20;3.38;;;;;;;-2.84;83.73;99714.38;5064936;28;20033;-65
2021/01/26 06:25:17;;;;;;;3.78;2.85;;;;;;;-2.89;83.40;99728.63;5065131;28;20040;-65
2021/01/26 06:27:50;;;;;;;4.45;2.65;;;;;;;-3.20;83.43;99677.59;5064888;28;20065;-65
2021/01/26 06:30:56;;;;;;;3.88;2.83;;;;;;;-2.93;83.83;99724.22;5065257;28;20032;-66
2021/01/26 06:33:49;;;;;;;3.92;2.85;;;;;;;-3.00;83.66;99723.13;5023743;28;20036;-66
2021/01/26 06:36:26;;;;;;;5.05;3.50;;;;;;;-3.07;83.52;99726.28;5064638;28;20053;-69
2021/01/26 06:38:54;;;;;;;5.03;3.67;;;;;;;-3.14;83.44;99736.22;5063862;28;20032;-65
2021/01/26 06:41:31;;;;;;;5.85;3.78;;;;;;;-3.15;83.90;99748.88;5064662;28;20052;-64
2021/01/26 06:44:15;;;;;;;5.13;3.47;;;;;;;-3.14;84.23;99745.50;5064561;28;20048;-64
2021/01/26 06:47:08;;;;;;;6.05;3.72;;;;;;;-3.10;83.89;99752.44;5064553;28;20029;-64
2021/01/26 06:50:01;;;;;;;7.20;4.32;;;;;;;-3.11;84.02;99748.16;5064537;28;20027;-65
2021/01/26 06:52:32;;;;;;;5.35;3.25;;;;;;;-3.11;83.96;99749.03;5064360;28;20029;-64
2021/01/26 06:55:00;;;;;;;5.65;3.75;;;;;;;-3.12;83.93;99757.47;5064574;28;20028;-64
2021/01/26 06:57:57;;;;;;;4.68;2.65;;;;;;;-3.15;83.85;99756.47;5063941;28;20025;-64
2021/01/26 07:01:01;;;;;;;5.57;3.53;;;;;;;-3.23;83.67;99761.28;5064131;28;20055;-65
2021/01/26 07:03:32;;;;;;;5.32;3.15;;;;;;;-3.26;83.70;99762.00;5064467;28;20029;-65
2021/01/26 07:06:06;;;;;;;6.47;3.97;;;;;;;-3.25;84.00;99763.75;5064342;28;20075;-66
2021/01/26 07:08:41;;;;;;;4.97;3.38;;;;;;;-3.18;83.88;99764.00;5064064;28;20064;-65
2021/01/26 07:11:21;;;;;;;6.18;3.00;;;;;;;-3.21;83.82;99771.50;5064020;28;20021;-65
2021/01/26 07:14:15;;;;;;;5.57;3.28;;;;;;;-3.25;83.96;99773.91;5064174;28;20051;-65
2021/01/26 07:16:48;;;;;;;5.32;3.35;;;;;;;-3.27;84.00;99765.38;5046202;28;20044;-65
2021/01/26 07:19:37;;;;;;;5.53;3.08;;;;;;;-3.22;84.08;99785.84;5064047;28;20044;-65
2021/01/26 07:22:23;;;;;;;4.13;3.30;;;;;;;-3.19;84.06;99782.56;5063556;28;20017;-64
2021/01/26 07:24:54;;;;;;;4.13;3.22;;;;;;;-3.15;84.11;99789.50;5063633;28;20036;-65
2021/01/26 07:27:52;;;;;;;6.88;3.45;;;;;;;-3.14;84.01;99793.75;5062723;28;20051;-65
2021/01/26 07:30:38;;;;;;;4.30;3.50;;;;;;;-3.14;84.03;99796.28;5063824;28;20033;-65
2021/01/26 07:33:11;;;;;;;4.97;3.35;;;;;;;-3.10;84.12;99800.69;5045534;28;20070;-65
2021/01/26 07:35:39;;;;;;;6.68;3.33;;;;;;;-3.02;84.18;99806.06;5063401;28;20070;-64
2021/01/26 07:38:42;;;;;;;4.03;2.90;;;;;;;-2.99;84.16;99807.00;5063439;28;20029;-65
2021/01/26 07:41:16;;;;;;;5.55;3.58;;;;;;;-3.03;83.61;99809.38;5063317;28;20384;-63
2021/01/26 07:43:46;;;;;;;5.90;2.83;;;;;;;-3.12;83.47;99815.00;5063654;28;20017;-65
2021/01/26 07:46:30;;;;;;;5.05;3.20;;;;;;;-3.14;83.89;99816.59;5063250;28;20031;-65
2021/01/26 07:49:01;;;;;;;5.03;3.25;;;;;;;-3.20;83.74;99812.19;5063269;28;20031;-64
2021/01/26 07:51:31;;;;;;;5.93;3.50;;;;;;;-3.15;83.71;99817.44;5044948;28;20027;-66
2021/01/26 07:54:12;;;;;;;8.52;3.42;;;;;;;-3.19;83.55;99823.19;5045118;28;20036;-65
2021/01/26 07:56:40;;;;;;;9.95;3.17;;;;;;;-3.22;83.63;99829.00;5063398;28;20085;-65
2021/01/26 07:59:16;;;;;;;5.85;3.45;;;;;;;-3.19;83.61;99821.50;5045082;28;20499;-66
2021/01/26 08:01:52;;;;;;;5.65;3.38;;;;;;;-3.21;83.74;99822.28;5045118;28;20542;-65
2021/01/26 08:04:18;;;;;;;6.05;3.50;;;;;;;-3.25;83.81;99827.25;5063162;28;20025;-66
2021/01/26 08:06:48;;;;;;;5.95;3.38;;;;;;;-3.22;83.92;99828.13;5063077;28;20079;-65
2021/01/26 08:09:22;;;;;;;5.25;3.05;;;;;;;-3.19;84.03;99829.13;5063116;28;20021;-65
2021/01/26 08:11:59;;;;;;;5.78;3.35;;;;;;;-3.22;83.80;99841.72;5063274;28;20032;-67
2021/01/26 08:14:30;;;;;;;4.95;2.90;;;;;;;-3.24;83.88;99841.66;5063430;28;20033;-65
2021/01/26 08:16:57;;;;;;;4.78;3.67;;;;;;;-3.23;83.89;99845.06;5063077;28;20028;-66
2021/01/26 08:19:31;;;;;;;6.15;3.42;;;;;;;-3.28;83.89;99833.88;5045069;28;20082;-65
2021/01/26 08:21:58;;;;;;;4.05;2.83;;;;;;;-3.22;83.96;99838.28;5062547;28;20021;-66
2021/01/26 08:24:33;;;;;;;3.38;2.40;;;;;;;-3.22;83.94;99833.22;5062523;28;20021;-67
2021/01/26 08:27:37;;;;;;;4.15;2.58;;;;;;;-3.22;83.78;99838.28;5062107;28;20049;-66
2021/01/26 08:30:13;;;;;;;5.30;3.33;;;;;;;-3.27;83.95;99825.44;4965233;28;20026;-66
2021/01/26 08:32:39;;;;;;;8.48;3.00;;;;;;;-3.11;84.28;99842.13;4980233;28;20033;-66
2021/01/26 08:35:34;;;;;;;7.30;3.15;;;;;;;-3.04;84.20;99846.63;4980672;28;20043;-65
2021/01/26 08:38:02;;;;;;;4.75;2.92;;;;;;;-2.97;84.11;99849.41;4981221;28;20026;-66
2021/01/26 08:40:27;;;;;;;5.85;3.38;;;;;;;-2.89;84.15;99853.09;4980748;28;20094;-67
2021/01/26 08:42:56;;;;;;;6.50;2.88;;;;;;;-2.78;84.30;99856.88;4980878;28;20057;-68
2021/01/26 08:45:24;;;;;;;3.45;2.70;;;;;;;-2.64;84.16;99857.41;4981794;28;20035;-68
2021/01/26 08:47:54;;;;;;;4.47;2.72;;;;;;;-2.41;84.50;99851.44;4981489;28;20101;-67
2021/01/26 08:50:33;;;;;;;3.75;2.35;;;;;;;-2.07;84.17;99841.53;4981370;28;20018;-67
2021/01/26 08:53:32;;;;;;;3.92;2.80;;;;;;;-1.90;83.45;99849.75;4981264;28;20043;-66
2021/01/26 08:55:59;;;;;;;4.10;2.90;;;;;;;-1.74;83.09;99848.56;4981686;28;20130;-66
2021/01/26 08:58:42;;;;;;;4.20;2.50;;;;;;;-1.31;82.86;99851.59;4981608;28;20458;-65
2021/01/26 09:01:11;;;;;;;2.90;2.38;;;;;;;-0.80;82.30;99853.97;5015841;28;20441;-66
2021/01/26 09:03:42;;;;;;;2.92;2.33;;;;;;;-0.33;81.44;99851.00;5065888;28;20021;-66
2021/01/26 09:06:13;;;;;;;3.55;3.05;;;;;;;0.17;80.59;99841.22;5066745;28;20112;-67
2021/01/26 09:08:41;;;;;;;8.20;2.60;;;;;;;0.63;79.88;99844.00;5066297;28;20032;-67
2021/01/26 09:11:49;;;;;;;3.17;2.15;;;;;;;1.26;78.95;99847.91;5066516;28;20040;-67
2021/01/26 09:14:45;;;;;;;5.82;2.25;;;;;;;1.69;76.91;99837.66;5058134;28;20037;-67
2021/01/26 09:17:31;;;;;;;3.40;2.67;;;;;;;1.66;76.23;99845.28;5066053;28;20028;-68
2021/01/26 09:20:05;;;;;;;2.88;2.03;;;;;;;1.73;77.32;99842.00;5066383;28;20045;-68
2021/01/26 09:22:31;;;;;;;3.38;2.00;;;;;;;1.99;77.43;99846.72;5066090;28;20021;-67
2021/01/26 09:25:18;;;;;;;2.30;1.83;;;;;;;2.27;76.36;99836.09;5066452;28;20029;-67
2021/01/26 09:27:56;;;;;;;3.47;1.67;;;;;;;2.92;73.46;99849.91;5066102;28;20108;-67
2021/01/26 09:30:26;;;;;;;2.20;1.73;;;;;;;3.72;73.66;99846.56;5065846;28;20158;-67
2021/01/26 09:32:54;;;;;;;2.28;1.75;;;;;;;4.31;72.63;99838.53;5065920;28;20021;-66
2021/01/26 09:35:19;;;;;;;3.95;1.50;;;;;;;4.45;70.00;99843.81;5065733;28;20504;-66
2021/01/26 09:37:45;;;;;;;1.90;1.23;;;;;;;4.53;69.83;99846.44;5065622;28;20154;-65
2021/01/26 09:40:13;;;;;;;1.90;1.52;;;;;;;4.73;69.62;99847.44;5065540;28;20031;-66
2021/01/26 09:42:39;;;;;;;2.47;1.50;;;;;;;5.10;69.29;99850.19;5064711;28;20412;-66
2021/01/26 09:45:08;;;;;;;3.03;1.33;;;;;;;5.42;68.33;99844.34;5065448;28;20203;-66
2021/01/26 09:47:34;;;;;;;5.90;1.85;;;;;;;5.49;66.85;99845.22;5048291;28;20024;-67
2021/01/26 09:50:08;;;;;;;5.10;1.67;;;;;;;5.11;65.83;99849.38;5065670;28;20020;-67
2021/01/26 09:52:34;;;;;;;3.08;1.90;;;;;;;4.85;67.87;99852.66;5065222;28;20546;-67
2021/01/26 09:55:09;;;;;;;1.67;1.40;;;;;;;4.75;67.85;99859.44;5065737;28;20049;-68
2021/01/26 09:57:36;;;;;;;4.88;1.63;;;;;;;4.71;69.41;99847.44;5065242;28;20059;-66
2021/01/26 10:00:07;;;;;;;1.52;1.27;;;;;;;4.77;69.04;99862.88;5047032;28;20070;-67
2021/01/26 10:02:33;;;;;;;4.18;1.60;;;;;;;4.68;68.91;99858.53;5065170;28;20029;-67
2021/01/26 10:04:59;;;;;;;3.45;1.50;;;;;;;4.83;69.67;99859.47;5065349;28;20028;-67
2021/01/26 10:07:25;;;;;;;2.83;1.30;;;;;;;5.23;69.81;99850.25;5065064;28;20029;-67
2021/01/26 10:09:51;;;;;;;1.60;1.20;;;;;;;5.87;68.52;99859.06;5065150;28;20013;-67
2021/01/26 10:12:32;;;;;;;4.07;1.23;;;;;;;6.56;67.69;99856.56;5065043;28;20067;-67
2021/01/26 10:15:33;;;;;;;1.80;1.30;;;;;;;7.22;65.80;99861.59;5064143;28;20017;-67
2021/01/26 10:17:59;;;;;;;2.45;0.98;;;;;;;7.54;64.32;99864.03;5065209;28;20029;-68
2021/01/26 10:20:32;;;;;;;1.77;1.20;;;;;;;7.87;64.44;99863.88;5047025;28;20104;-67
2021/01/26 10:23:07;;;;;;;1.70;1.30;;;;;;;8.33;64.42;99855.78;5047064;28;20082;-67
2021/01/26 10:25:33;;;;;;;3.63;1.33;;;;;;;8.71;62.83;99864.13;5065403;28;20461;-67
2021/01/26 10:28:07;;;;;;;2.10;1.27;;;;;;;9.17;61.40;99868.81;5064405;28;20056;-67
2021/01/26 10:30:39;;;;;;;2.08;1.50;;;;;;;9.56;58.17;99859.75;5064192;28;20021;-68
2021/01/26 10:33:05;;;;;;;5.68;1.80;;;;;;;9.42;58.12;99867.69;5063788;28;20032;-66
2021/01/26 10:35:34;;;;;;;4.03;2.00;;;;;;;9.44;57.04;99862.50;5063826;28;20037;-66
2021/01/26 10:38:24;;;;;;;6.00;2.00;;;;;;;9.29;57.37;99867.84;5063735;28;20119;-68
2021/01/26 10:41:18;;;;;;;4.65;1.67;;;;;;;8.73;59.46;99859.78;5063667;28;20025;-66
2021/01/26 10:43:43;;;;;;;4.82;1.85;;;;;;;7.84;60.44;99871.66;5063708;28;20474;-66
2021/01/26 10:46:14;;;;;;;8.55;1.60;;;;;;;7.30;62.00;99877.94;5063692;28;20081;-67
2021/01/26 10:48:43;;;;;;;2.30;1.30;;;;;;;6.93;62.80;99878.88;5063643;28;20029;-67
2021/01/26 10:51:25;;;;;;;1.45;0.90;;;;;;;6.49;60.70;99889.22;5063662;28;20480;-66
2021/01/26 10:53:50;;;;;;;1.95;0.80;;;;;;;5.83;60.07;99870.22;5063764;28;20025;-67
2021/01/26 10:56:16;;;;;;;2.10;1.20;;;;;;;4.96;60.19;99884.44;5063516;28;20114;-68
2021/01/26 10:58:43;;;;;;;2.28;1.35;;;;;;;4.40;63.32;99885.75;5045601;28;20277;-67
2021/01/26 11:01:11;;;;;;;4.18;1.70;;;;;;;3.90;61.24;99877.59;5063341;28;20021;-67
2021/01/26 11:03:36;;;;;;;4.72;1.40;;;;;;;3.37;63.37;99875.25;5063358;28;20091;-67
2021/01/26 11:06:02;;;;;;;2.65;1.20;;;;;;;3.23;64.90;99875.06;5063757;28;20021;-67
2021/01/26 11:08:28;;;;;;;2.88;1.30;;;;;;;3.15;64.51;99880.09;5064072;28;20424;-67
2021/01/26 11:10:53;;;;;;;2.38;1.20;;;;;;;3.05;62.99;99883.41;5064261;28;20025;-67
2021/01/26 11:13:18;;;;;;;3.95;1.40;;;;;;;2.95;64.11;99885.84;5063904;28;20076;-67
2021/01/26 11:15:44;;;;;;;5.60;1.35;;;;;;;2.85;63.49;99874.59;5064190;28;20025;-66
2021/01/26 11:18:10;;;;;;;5.97;1.65;;;;;;;2.97;63.97;99885.88;5063885;28;20052;-67
2021/01/26 11:20:35;;;;;;;5.22;1.30;;;;;;;3.30;64.44;99882.03;5045851;28;20116;-66
2021/01/26 11:23:01;;;;;;;2.63;1.42;;;;;;;3.85;62.86;99877.50;5063715;28;20024;-67
2021/01/26 11:25:27;;;;;;;3.45;1.40;;;;;;;4.30;60.62;99879.66;5063668;28;20021;-68
2021/01/26 11:27:53;;;;;;;1.98;1.33;;;;;;;4.49;59.54;99879.81;5063771;28;20032;-65
2021/01/26 11:30:19;;;;;;;1.88;1.15;;;;;;;4.79;57.84;99878.34;5063718;28;20021;-68
2021/01/26 11:32:45;;;;;;;5.43;1.52;;;;;;;5.01;56.51;99870.75;5063498;28;20088;-67
2021/01/26 11:35:12;;;;;;;3.97;1.33;;;;;;;5.15;56.33;99889.69;5063501;28;20043;-66
2021/01/26 11:37:38;;;;;;;3.75;1.58;;;;;;;5.62;56.99;99889.91;5063463;28;20067;-67
2021/01/26 11:40:08;;;;;;;2.38;1.50;;;;;;;6.36;55.10;99890.94;5045568;28;20029;-68
2021/01/26 11:42:35;;;;;;;6.82;2.28;;;;;;;6.10;54.03;99888.34;5063595;28;20080;-69
2021/01/26 11:45:01;;;;;;;1.83;1.40;;;;;;;4.69;54.81;99898.84;5045605;28;20025;-68
2021/01/26 11:47:26;;;;;;;4.22;1.85;;;;;;;3.27;57.72;99909.34;5063449;28;20100;-68
2021/01/26 11:49:52;;;;;;;6.63;1.60;;;;;;;2.36;61.30;99902.88;5063747;28;20500;-68
2021/01/26 11:52:17;;;;;;;4.05;1.92;;;;;;;1.68;63.42;99885.41;5062923;28;20107;-67
2021/01/26 11:54:42;;;;;;;6.22;2.22;;;;;;;1.48;64.64;99916.59;5063592;28;20025;-67
2021/01/26 11:57:08;;;;;;;1.80;1.30;;;;;;;1.20;65.78;99912.56;5063175;28;20021;-67
2021/01/26 11:59:35;;;;;;;4.45;1.50;;;;;;;0.99;66.61;99904.44;5063358;28;20233;-68
2021/01/26 12:02:01;;;;;;;3.10;1.30;;;;;;;0.68;66.33;99897.75;5063017;28;20021;-67
2021/01/26 12:04:26;;;;;;;3.00;1.33;;;;;;;0.35;66.06;99902.09;5063340;28;20032;-67